createdAt,value
2018-02-23T00:01:36.224Z,49.90
2018-02-23T00:04:05.844Z,50.50
2018-02-23T00:06:37.837Z,50.20
2018-02-23T00:09:10.325Z,50.10
2018-02-23T00:11:40.086Z,51.10
2018-02-23T00:14:09.059Z,50.20
2018-02-23T00:16:45.859Z,50.00
2018-02-23T00:19:18.977Z,50.60
2018-02-23T00:21:48.016Z,50.60
2018-02-23T00:24:17.427Z,50.80
2018-02-23T00:26:46.946Z,50.00
2018-02-23T00:29:16.720Z,49.70
2018-02-23T00:31:49.828Z,50.90
2018-02-23T00:34:18.830Z,50.70
2018-02-23T00:36:51.906Z,50.60
2018-02-23T00:39:20.935Z,50.90
2018-02-23T00:41:54.177Z,51.30
2018-02-23T00:44:23.652Z,51.30
2018-02-23T00:46:55.781Z,51.80
2018-02-23T00:49:25.552Z,52.00
2018-02-23T00:51:59.340Z,52.00
2018-02-23T00:54:28.841Z,52.10
2018-02-23T00:57:00.945Z,51.60
2018-02-23T00:59:30.025Z,51.70
2018-02-23T01:02:20.096Z,51.80
2018-02-23T01:04:49.105Z,52.20
2018-02-23T01:07:18.060Z,52.20
2018-02-23T01:09:47.509Z,52.30
2018-02-23T01:12:16.591Z,51.20
2018-02-23T01:14:48.647Z,52.00
2018-02-23T01:17:17.959Z,51.40
2018-02-23T01:22:16.957Z,51.90
2018-02-23T01:24:47.255Z,52.00
2018-02-23T01:27:23.881Z,51.70
2018-02-23T01:29:53.907Z,52.20
2018-02-23T01:32:24.156Z,52.30
2018-02-23T01:34:56.681Z,52.20
2018-02-23T01:37:39.203Z,52.70
2018-02-23T01:40:08.590Z,52.20
2018-02-23T01:42:53.505Z,51.40
2018-02-23T01:45:36.472Z,51.40
2018-02-23T01:48:27.171Z,52.50
2018-02-23T01:55:27.732Z,51.30
2018-02-23T01:58:34.647Z,51.20
2018-02-23T02:01:05.443Z,51.20
2018-02-23T02:03:55.034Z,51.20
2018-02-23T02:06:33.733Z,52.10
2018-02-23T02:09:10.211Z,51.10
2018-02-23T02:12:35.115Z,50.60
2018-02-23T02:15:07.079Z,50.80
2018-02-23T02:17:55.328Z,51.00
2018-02-23T02:20:45.860Z,51.10
2018-02-23T02:23:15.636Z,50.90
2018-02-23T02:25:44.958Z,50.90
2018-02-23T02:28:21.112Z,50.90
2018-02-23T02:30:51.439Z,51.20
2018-02-23T02:33:21.563Z,51.50
2018-02-23T02:35:51.623Z,51.30
2018-02-23T02:38:25.409Z,51.30
2018-02-23T02:40:55.729Z,50.90
2018-02-23T02:43:25.708Z,50.80
2018-02-23T02:45:55.310Z,50.80
2018-02-23T02:48:24.751Z,50.80
2018-02-23T02:50:54.821Z,50.90
2018-02-23T02:53:23.898Z,50.90
2018-02-23T02:55:56.925Z,50.50
2018-02-23T02:58:27.533Z,50.20
2018-02-23T03:00:57.967Z,50.20
2018-02-23T03:03:26.952Z,51.20
2018-02-23T03:06:04.266Z,50.90
2018-02-23T03:08:34.571Z,50.80
2018-02-23T03:11:04.014Z,50.80
2018-02-23T03:13:33.401Z,51.60
2018-02-23T03:16:04.521Z,51.80
2018-02-23T03:18:34.776Z,52.50
2018-02-23T03:21:07.308Z,51.90
2018-02-23T03:23:36.311Z,51.70
2018-02-23T03:26:10.371Z,52.40
2018-02-23T03:28:39.374Z,52.40
2018-02-23T03:31:12.904Z,53.20
2018-02-23T03:33:42.516Z,53.20
2018-02-23T03:36:14.112Z,53.70
2018-02-23T03:38:43.254Z,53.70
2018-02-23T03:41:16.109Z,54.30
2018-02-23T03:43:45.886Z,54.50
2018-02-23T03:46:19.005Z,54.60
2018-02-23T03:48:48.224Z,54.80
2018-02-23T03:51:24.488Z,54.90
2018-02-23T03:53:53.639Z,55.30
2018-02-23T03:56:24.178Z,55.50
2018-02-23T03:58:53.483Z,55.50
2018-02-23T04:01:27.719Z,56.20
2018-02-23T04:03:57.017Z,56.30
2018-02-23T04:06:26.320Z,56.80
2018-02-23T04:08:55.660Z,57.10
2018-02-23T04:11:27.690Z,57.60
2018-02-23T04:13:56.697Z,57.60
2018-02-23T04:16:30.305Z,57.80
2018-02-23T04:18:59.307Z,58.10
2018-02-23T04:21:32.860Z,58.20
2018-02-23T04:24:01.835Z,58.10
2018-02-23T04:26:34.409Z,58.40
2018-02-23T04:29:03.663Z,58.50
2018-02-23T04:31:36.831Z,58.50
2018-02-23T04:34:05.800Z,58.50
2018-02-23T04:36:38.492Z,58.40
2018-02-23T04:39:07.481Z,59.30
2018-02-23T04:41:40.656Z,59.10
2018-02-23T04:44:09.619Z,59.20
2018-02-23T04:46:46.242Z,59.20
2018-02-23T04:49:15.527Z,59.40
2018-02-23T04:51:45.718Z,59.40
2018-02-23T04:54:14.705Z,59.60
2018-02-23T04:56:48.386Z,59.40
2018-02-23T04:59:18.090Z,59.80
2018-02-23T05:01:51.785Z,59.70
2018-02-23T05:04:21.020Z,59.70
2018-02-23T05:06:53.224Z,59.60
2018-02-23T05:09:22.207Z,59.70
2018-02-23T05:11:55.028Z,59.50
2018-02-23T05:14:24.074Z,59.40
2018-02-23T05:17:00.187Z,59.60
2018-02-23T05:19:29.568Z,59.60
2018-02-23T05:21:59.664Z,59.50
2018-02-23T05:24:28.625Z,59.60
2018-02-23T05:27:01.720Z,59.50
2018-02-23T05:29:31.608Z,59.80
2018-02-23T05:32:08.133Z,59.70
2018-02-23T05:34:37.323Z,59.60
2018-02-23T05:37:07.435Z,59.50
2018-02-23T05:39:36.457Z,59.40
2018-02-23T05:42:09.552Z,59.60
2018-02-23T05:44:38.575Z,59.70
2018-02-23T05:47:15.043Z,59.60
2018-02-23T05:49:44.308Z,59.60
2018-02-23T05:52:16.538Z,59.60
2018-02-23T05:54:45.558Z,59.60
2018-02-23T05:57:16.374Z,59.70
2018-02-23T05:59:45.328Z,59.50
2018-02-23T06:02:18.704Z,59.50
2018-02-23T06:04:48.737Z,59.70
2018-02-23T06:07:21.519Z,59.60
2018-02-23T06:09:50.482Z,59.50
2018-02-23T06:12:23.292Z,59.70
2018-02-23T06:14:52.287Z,59.70
2018-02-23T06:17:29.309Z,59.70
2018-02-23T06:20:02.393Z,59.50
2018-02-23T06:22:31.409Z,59.30
2018-02-23T06:25:01.701Z,59.30
2018-02-23T06:27:30.717Z,59.10
2018-02-23T06:29:59.708Z,59.60
2018-02-23T06:32:30.684Z,59.30
2018-02-23T06:34:59.672Z,59.50
2018-02-23T06:37:35.889Z,59.40
2018-02-23T06:40:04.677Z,59.50
2018-02-23T06:42:35.199Z,59.30
2018-02-23T06:45:04.436Z,59.40
2018-02-23T06:47:37.806Z,59.20
2018-02-23T06:50:07.300Z,59.40
2018-02-23T06:52:40.011Z,59.10
2018-02-23T06:55:09.662Z,59.40
2018-02-23T06:57:41.778Z,58.80
2018-02-23T07:00:11.722Z,58.60
2018-02-23T07:02:43.878Z,58.60
2018-02-23T07:05:13.957Z,58.80
2018-02-23T07:07:47.432Z,58.80
2018-02-23T07:10:16.925Z,58.20
2018-02-23T07:12:50.247Z,58.20
2018-02-23T07:15:19.296Z,58.20
2018-02-23T07:17:50.839Z,58.20
2018-02-23T07:20:19.855Z,58.30
2018-02-23T07:22:53.741Z,57.90
2018-02-23T07:25:24.822Z,57.50
2018-02-23T07:27:55.353Z,57.40
2018-02-23T07:30:24.355Z,57.40
2018-02-23T07:32:58.112Z,57.60
2018-02-23T07:35:27.138Z,56.40
2018-02-23T07:37:59.907Z,55.80
2018-02-23T07:40:29.916Z,55.90
2018-02-23T07:43:02.425Z,55.90
2018-02-23T07:45:31.400Z,55.90
2018-02-23T07:48:05.180Z,55.20
2018-02-23T07:50:34.261Z,55.30
2018-02-23T07:53:07.136Z,55.30
2018-02-23T07:55:37.195Z,54.60
2018-02-23T07:58:13.343Z,54.50
2018-02-23T08:00:43.073Z,54.30
2018-02-23T08:03:13.176Z,54.00
2018-02-23T08:05:42.536Z,54.60
2018-02-23T08:08:19.369Z,54.10
2018-02-23T08:10:48.790Z,53.90
2018-02-23T08:13:17.989Z,53.60
2018-02-23T08:15:47.205Z,53.10
2018-02-23T08:18:19.041Z,52.10
2018-02-23T08:20:48.161Z,52.10
2018-02-23T08:23:24.624Z,51.40
2018-02-23T08:25:54.703Z,50.50
2018-02-23T08:28:24.125Z,50.40
2018-02-23T08:30:53.125Z,50.60
2018-02-23T08:33:27.221Z,51.00
2018-02-23T08:35:58.178Z,50.70
2018-02-23T08:38:28.136Z,50.70
2018-02-23T08:40:57.481Z,50.30
2018-02-23T08:43:30.556Z,49.90
2018-02-23T08:45:59.601Z,50.70
2018-02-23T08:48:32.521Z,50.10
2018-02-23T08:51:01.846Z,50.30
2018-02-23T08:53:34.904Z,49.60
2018-02-23T08:56:04.090Z,48.90
2018-02-23T08:58:36.794Z,48.80
2018-02-23T09:01:05.786Z,48.20
2018-02-23T09:03:38.608Z,48.80
2018-02-23T09:06:11.104Z,47.00
2018-02-23T09:08:40.153Z,46.90
2018-02-23T09:11:09.183Z,46.00
2018-02-23T09:13:42.145Z,46.30
2018-02-23T09:16:11.912Z,43.80
2018-02-23T09:18:48.252Z,44.40
2018-02-23T09:21:17.281Z,42.70
2018-02-23T09:23:47.490Z,41.20
2018-02-23T09:26:17.593Z,41.10
2018-02-23T09:28:50.060Z,41.10
2018-02-23T09:31:19.125Z,41.00
2018-02-23T09:34:01.452Z,38.20
2018-02-23T09:36:30.498Z,38.20
2018-02-23T09:38:59.648Z,37.50
2018-02-23T09:41:29.038Z,37.10
2018-02-23T09:43:58.053Z,36.10
2018-02-23T09:46:27.016Z,37.50
2018-02-23T09:48:59.471Z,35.40
2018-02-23T09:51:29.322Z,33.20
2018-02-23T09:56:37.831Z,31.10
2018-02-23T09:59:06.825Z,31.10
2018-02-23T10:01:36.103Z,31.30
2018-02-23T10:04:07.083Z,30.70
2018-02-23T10:06:36.089Z,30.00
2018-02-23T10:09:12.877Z,30.90
2018-02-23T10:11:41.836Z,30.70
2018-02-23T10:14:14.058Z,32.10
2018-02-23T10:16:44.083Z,31.50
2018-02-23T10:19:14.795Z,29.80
2018-02-23T10:21:44.579Z,29.70
2018-02-23T10:24:16.009Z,29.70
2018-02-23T10:26:45.028Z,31.20
2018-02-23T10:29:18.026Z,29.20
2018-02-23T10:36:45.570Z,29.70
2018-02-23T10:39:21.030Z,27.90
2018-02-23T10:41:50.535Z,27.90
2018-02-23T10:44:27.519Z,29.60
2018-02-23T10:46:56.620Z,29.30
2018-02-23T10:49:26.493Z,30.50
2018-02-23T10:51:55.972Z,30.20
2018-02-23T10:54:28.829Z,33.30
2018-02-23T10:56:57.816Z,33.30
2018-02-23T10:59:30.598Z,30.30
2018-02-23T11:01:59.751Z,31.60
2018-02-23T11:04:32.909Z,32.80
2018-02-23T11:07:02.138Z,31.60
2018-02-23T11:09:34.514Z,32.30
2018-02-23T11:12:03.915Z,32.80
2018-02-23T11:14:37.005Z,33.00
2018-02-23T11:17:06.099Z,33.20
2018-02-23T11:19:42.393Z,32.40
2018-02-23T11:22:11.463Z,32.40
2018-02-23T11:24:40.589Z,33.20
2018-02-23T11:27:09.962Z,32.60
2018-02-23T11:29:46.132Z,31.60
2018-02-23T11:32:15.224Z,33.10
2018-02-23T11:34:44.601Z,32.50
2018-02-23T11:37:13.635Z,33.20
2018-02-23T11:39:50.695Z,32.60
2018-02-23T11:42:19.749Z,31.60
2018-02-23T11:44:49.528Z,32.50
2018-02-23T11:47:19.346Z,32.20
2018-02-23T11:49:55.890Z,32.20
2018-02-23T11:52:25.240Z,30.70
2018-02-23T11:54:55.516Z,30.30
2018-02-23T11:57:29.065Z,30.30
2018-02-23T11:59:59.037Z,29.80
2018-02-23T12:02:28.138Z,29.80
2018-02-23T12:04:59.947Z,28.70
2018-02-23T12:07:29.800Z,29.40
2018-02-23T12:10:03.008Z,29.40
2018-02-23T12:12:32.312Z,29.30
2018-02-23T12:15:05.271Z,29.40
2018-02-23T12:17:34.313Z,29.20
2018-02-23T12:20:06.837Z,27.60
2018-02-23T12:22:35.841Z,27.60
2018-02-23T12:25:12.277Z,29.20
2018-02-23T12:27:41.596Z,28.00
2018-02-23T12:30:14.585Z,30.00
2018-02-23T12:32:43.630Z,28.50
2018-02-23T12:35:16.121Z,27.60
2018-02-23T12:37:45.164Z,28.30
2018-02-23T12:40:16.561Z,29.60
2018-02-23T12:42:46.742Z,28.20
2018-02-23T12:45:19.588Z,28.20
2018-02-23T12:47:48.671Z,28.30
2018-02-23T12:50:20.800Z,29.80
2018-02-23T12:52:50.767Z,28.20
2018-02-23T12:55:23.509Z,28.20
2018-02-23T12:57:52.849Z,28.30
2018-02-23T13:00:25.013Z,27.50
2018-02-23T13:02:54.967Z,28.30
2018-02-23T13:05:26.104Z,28.50
2018-02-23T13:07:55.376Z,27.60
2018-02-23T13:10:28.441Z,27.00
2018-02-23T13:12:57.496Z,27.00
2018-02-23T13:15:30.445Z,28.40
2018-02-23T13:17:59.527Z,28.40
2018-02-23T13:20:32.728Z,28.00
2018-02-23T13:23:02.679Z,28.20
2018-02-23T13:25:36.327Z,29.60
2018-02-23T13:28:09.864Z,29.60
2018-02-23T13:30:39.553Z,29.00
2018-02-23T13:33:09.221Z,28.70
2018-02-23T13:35:39.958Z,28.10
2018-02-23T13:38:09.702Z,28.00
2018-02-23T13:40:42.454Z,28.10
2018-02-23T13:43:11.970Z,28.10
2018-02-23T13:45:45.668Z,27.60
2018-02-23T13:48:15.310Z,28.80
2018-02-23T13:50:48.026Z,27.00
2018-02-23T13:53:18.538Z,27.00
2018-02-23T13:55:48.735Z,27.00
2018-02-23T13:58:18.208Z,27.60
2018-02-23T14:00:52.145Z,26.80
2018-02-23T14:03:22.425Z,27.30
2018-02-23T14:05:55.568Z,27.30
2018-02-23T14:08:26.174Z,27.50
2018-02-23T14:10:57.075Z,27.50
2018-02-23T14:13:27.294Z,27.20
2018-02-23T14:15:59.120Z,27.20
2018-02-23T14:18:29.364Z,27.90
2018-02-23T14:21:03.311Z,27.90
2018-02-23T14:23:34.170Z,27.90
2018-02-23T14:26:04.634Z,27.20
2018-02-23T14:28:34.111Z,27.20
2018-02-23T14:31:06.258Z,27.90
2018-02-23T14:33:35.818Z,27.70
2018-02-23T14:36:08.978Z,27.30
2018-02-23T14:38:41.585Z,28.40
2018-02-23T14:41:12.496Z,28.30
2018-02-23T14:43:44.338Z,28.10
2018-02-23T14:46:19.743Z,28.40
2018-02-23T14:49:22.929Z,28.40
2018-02-23T14:51:52.746Z,28.20
2018-02-23T14:54:22.523Z,28.80
2018-02-23T14:56:52.723Z,30.00
2018-02-23T14:59:22.618Z,29.90
2018-02-23T15:01:52.111Z,28.90
2018-02-23T15:04:21.709Z,28.60
2018-02-23T15:06:51.453Z,28.30
2018-02-23T15:09:22.512Z,28.90
2018-02-23T15:11:53.775Z,29.70
2018-02-23T15:14:26.407Z,29.60
2018-02-23T15:16:56.055Z,29.80
2018-02-23T15:19:27.708Z,28.10
2018-02-23T15:21:57.439Z,28.10
2018-02-23T15:24:29.911Z,28.80
2018-02-23T15:26:59.406Z,28.20
2018-02-23T15:29:32.406Z,28.90
2018-02-23T15:32:12.446Z,29.20
2018-02-23T15:34:41.839Z,29.30
2018-02-23T15:37:11.263Z,30.10
2018-02-23T15:39:41.026Z,29.50
2018-02-23T15:42:11.320Z,29.20
2018-02-23T15:44:40.703Z,29.20
2018-02-23T15:47:10.647Z,28.80
2018-02-23T15:49:40.567Z,29.30
2018-02-23T15:52:10.349Z,29.80
2018-02-23T15:54:41.564Z,29.90
2018-02-23T15:57:11.277Z,29.30
2018-02-23T15:59:44.682Z,29.40
2018-02-23T16:02:14.448Z,29.70
2018-02-23T16:04:45.210Z,30.90
2018-02-23T16:07:15.490Z,30.20
2018-02-23T16:09:48.078Z,30.10
2018-02-23T16:12:18.750Z,29.70
2018-02-23T16:14:54.240Z,29.70
2018-02-23T16:17:23.831Z,30.30
2018-02-23T16:19:56.784Z,29.90
2018-02-23T16:22:28.670Z,29.90
2018-02-23T16:24:59.693Z,31.20
2018-02-23T16:27:29.264Z,31.20
2018-02-23T16:29:59.601Z,29.80
2018-02-23T16:32:29.398Z,29.80
2018-02-23T16:35:01.461Z,29.70
2018-02-23T16:37:31.757Z,30.80
2018-02-23T16:40:03.712Z,30.80
2018-02-23T16:42:34.117Z,30.80
2018-02-23T16:45:06.892Z,30.80
2018-02-23T16:47:36.748Z,30.50
2018-02-23T16:50:09.325Z,30.30
2018-02-23T16:52:38.888Z,29.70
2018-02-23T16:55:11.568Z,31.10
2018-02-23T16:57:41.026Z,32.00
2018-02-23T17:00:16.428Z,32.40
2018-02-23T17:02:47.219Z,32.30
2018-02-23T17:05:16.668Z,33.60
2018-02-23T17:07:46.166Z,34.50
2018-02-23T17:10:18.631Z,35.40
2018-02-23T17:12:48.055Z,37.00
2018-02-23T17:15:25.170Z,37.50
2018-02-23T17:17:55.471Z,38.70
2018-02-23T17:20:24.911Z,38.60
2018-02-23T17:22:54.401Z,39.30
2018-02-23T17:25:25.056Z,39.70
2018-02-23T17:27:54.827Z,40.50
2018-02-23T17:30:27.943Z,41.30
2018-02-23T17:32:57.828Z,41.20
2018-02-23T17:35:28.566Z,41.40
2018-02-23T17:38:03.487Z,41.80
2018-02-23T17:40:33.282Z,41.80
2018-02-23T17:43:02.768Z,41.80
2018-02-23T17:45:32.751Z,42.50
2018-02-23T17:48:02.597Z,42.30
2018-02-23T17:50:35.292Z,42.60
2018-02-23T17:53:04.874Z,43.00
2018-02-23T17:55:36.760Z,42.80
2018-02-23T17:58:06.305Z,43.00
2018-02-23T18:00:39.066Z,43.40
2018-02-23T18:03:09.766Z,43.60
2018-02-23T18:05:42.432Z,43.60
2018-02-23T18:08:11.941Z,43.70
2018-02-23T18:10:43.101Z,42.90
2018-02-23T18:13:12.700Z,43.90
2018-02-23T18:15:45.254Z,43.10
2018-02-23T18:18:14.933Z,43.40
2018-02-23T18:20:48.855Z,43.60
2018-02-23T18:23:18.384Z,43.60
2018-02-23T18:25:51.439Z,43.90
2018-02-23T18:28:22.075Z,43.90
2018-02-23T18:30:52.891Z,43.70
2018-02-23T18:33:23.142Z,43.40
2018-02-23T18:35:56.159Z,43.30
2018-02-23T18:38:25.918Z,43.40
2018-02-23T18:40:59.211Z,44.10
2018-02-23T18:43:28.794Z,43.90
2018-02-23T18:46:00.650Z,43.40
2018-02-23T18:48:30.161Z,43.40
2018-02-23T18:51:04.153Z,43.70
2018-02-23T18:53:33.679Z,43.70
2018-02-23T18:56:05.025Z,44.00
2018-02-23T18:58:34.665Z,44.00
2018-02-23T19:01:07.249Z,43.70
2018-02-23T19:03:36.910Z,44.30
2018-02-23T19:06:14.969Z,44.10
2018-02-23T19:08:44.952Z,44.10
2018-02-23T19:11:14.615Z,43.60
2018-02-23T19:13:43.929Z,42.70
2018-02-23T19:16:15.352Z,42.70
2018-02-23T19:18:44.769Z,42.60
2018-02-23T19:21:17.779Z,43.10
2018-02-23T19:23:48.232Z,42.20
2018-02-23T19:26:18.754Z,42.60
2018-02-23T19:28:48.146Z,42.60
2018-02-23T19:31:25.286Z,42.80
2018-02-23T19:33:54.718Z,43.00
2018-02-23T19:36:24.976Z,43.30
2018-02-23T19:38:54.940Z,43.20
2018-02-23T19:41:24.872Z,42.80
2018-02-23T19:43:54.434Z,43.20
2018-02-23T19:46:27.293Z,43.30
2018-02-23T19:48:56.759Z,43.70
2018-02-23T19:51:30.057Z,42.80
2018-02-23T19:54:00.601Z,43.30
2018-02-23T19:56:31.971Z,42.70
2018-02-23T19:59:01.432Z,43.10
2018-02-23T20:01:33.224Z,43.00
2018-02-23T20:04:02.718Z,43.00
2018-02-23T20:06:35.303Z,43.50
2018-02-23T20:09:05.312Z,43.10
2018-02-23T20:11:38.064Z,43.10
2018-02-23T20:14:08.348Z,43.70
2018-02-23T20:16:39.524Z,43.70
2018-02-23T20:19:09.005Z,43.00
2018-02-23T20:21:42.336Z,43.40
2018-02-23T20:24:11.806Z,42.70
2018-02-23T20:26:43.413Z,42.50
2018-02-23T20:29:12.868Z,41.80
2018-02-23T20:31:45.826Z,40.80
2018-02-23T20:34:15.546Z,41.20
2018-02-23T20:36:52.078Z,40.80
2018-02-23T20:39:21.491Z,40.40
2018-02-23T20:41:51.695Z,40.40
2018-02-23T20:44:21.399Z,40.40
2018-02-23T20:46:53.112Z,40.60
2018-02-23T20:49:22.531Z,40.50
2018-02-23T20:51:55.264Z,40.50
2018-02-23T20:54:25.088Z,40.20
2018-02-23T20:56:58.560Z,40.20
2018-02-23T20:59:27.897Z,40.10
2018-02-23T21:02:00.872Z,39.80
2018-02-23T21:04:30.345Z,39.00
2018-02-23T21:07:03.687Z,39.10
2018-02-23T21:09:33.041Z,39.10
2018-02-23T21:12:06.221Z,40.30
2018-02-23T21:14:36.740Z,39.70
2018-02-23T21:17:07.973Z,38.10
2018-02-23T21:19:38.234Z,39.30
2018-02-23T21:22:11.127Z,39.20
2018-02-23T21:24:40.758Z,38.20
2018-02-23T21:27:13.117Z,39.00
2018-02-23T21:29:42.592Z,38.70
2018-02-23T21:32:15.955Z,37.30
2018-02-23T21:34:45.465Z,38.10
2018-02-23T21:37:18.482Z,37.30
2018-02-23T21:39:49.015Z,38.80
2018-02-23T21:42:18.561Z,38.20
2018-02-23T21:44:48.777Z,37.90
2018-02-23T21:47:21.787Z,37.00
2018-02-23T21:49:51.259Z,37.90
2018-02-23T21:52:24.238Z,37.80
2018-02-23T21:54:54.210Z,37.90
2018-02-23T21:57:24.780Z,37.20
2018-02-23T21:59:55.198Z,37.80
2018-02-23T22:02:27.736Z,37.80
2018-02-23T22:04:58.016Z,37.20
2018-02-23T22:07:29.071Z,37.20
2018-02-23T22:09:58.869Z,37.40
2018-02-23T22:12:31.986Z,36.50
2018-02-23T22:15:02.233Z,36.60
2018-02-23T22:17:33.051Z,36.50
2018-02-23T22:20:03.307Z,36.50
2018-02-23T22:22:36.051Z,36.40
2018-02-23T22:25:05.830Z,36.10
2018-02-23T22:27:38.415Z,36.80
2018-02-23T22:30:09.313Z,37.60
2018-02-23T22:32:39.240Z,37.50
2018-02-23T22:35:08.839Z,37.00
2018-02-23T22:37:45.644Z,36.40
2018-02-23T22:40:17.018Z,36.40
2018-02-23T22:42:47.579Z,36.30
2018-02-23T22:45:17.046Z,36.30
2018-02-23T22:47:46.794Z,37.30
2018-02-23T22:50:17.343Z,36.50
2018-02-23T22:52:50.420Z,36.50
2018-02-23T22:55:20.973Z,36.30
2018-02-23T22:57:50.717Z,36.20
2018-02-23T23:00:21.275Z,36.10
2018-02-23T23:02:54.465Z,36.10
2018-02-23T23:05:24.096Z,35.80
2018-02-23T23:08:00.771Z,36.00
2018-02-23T23:10:30.674Z,36.70
2018-02-23T23:13:00.297Z,36.80
2018-02-23T23:15:30.004Z,36.40
2018-02-23T23:18:00.522Z,37.00
2018-02-23T23:20:31.147Z,36.30
2018-02-23T23:23:04.693Z,36.70
2018-02-23T23:25:36.265Z,35.90
2018-02-23T23:28:07.234Z,35.70
2018-02-23T23:30:36.914Z,35.70
2018-02-23T23:33:08.171Z,35.60
2018-02-23T23:35:37.711Z,35.60
2018-02-23T23:38:11.375Z,35.90
2018-02-23T23:40:41.986Z,36.70
2018-02-23T23:43:12.944Z,36.80
2018-02-23T23:45:42.512Z,36.60
2018-02-23T23:48:19.349Z,36.50
2018-02-23T23:50:48.954Z,36.20
2018-02-23T23:53:18.412Z,37.10
2018-02-23T23:55:48.265Z,36.00
2018-02-23T23:58:19.138Z,36.00
